Time;durP1;ratioP1;P1;durP2;ratioP2;P2;SDS_P1;SDS_P2;PMS_P1;PMS_P2;Temp;Humidity;BMP_temperature;BMP_pressure;BME280_temperature;BME280_humidity;BME280_pressure;Samples;Min_cycle;Max_cycle;Signal;HPM_P1;HPM_P2
2024/01/02 00:00:05;;;;;;;;;0.00;0.00;;;;;14.75;100.00;99622.97;2107016;27;46702;-64
2024/01/02 00:01:06;;;;;;;;;0.00;0.00;;;;;14.76;100.00;99638.03;2106077;27;46415;-62
2024/01/02 00:02:06;;;;;;;;;0.00;0.00;;;;;14.77;100.00;99635.28;2106164;28;45953;-64
2024/01/02 00:03:06;;;;;;;;;0.00;0.00;;;;;14.78;100.00;99644.16;2109005;27;46369;-64
2024/01/02 00:04:07;;;;;;;;;0.00;0.00;;;;;14.79;100.00;99640.53;2103370;28;46779;-63
2024/01/02 00:05:07;;;;;;;;;0.00;0.00;;;;;14.82;100.00;99640.34;2106811;28;46192;-63
2024/01/02 00:06:08;;;;;;;;;0.00;0.00;;;;;14.81;100.00;99626.13;2109103;27;46646;-63
2024/01/02 00:07:08;;;;;;;;;0.00;0.00;;;;;14.82;100.00;99624.31;2106301;27;46291;-63
2024/01/02 00:08:08;;;;;;;;;0.00;0.00;;;;;14.82;100.00;99627.00;2107843;27;45511;-64
2024/01/02 00:09:09;;;;;;;;;0.00;0.00;;;;;14.82;100.00;99635.88;2107862;27;46901;-63
2024/01/02 00:10:09;;;;;;;;;0.00;0.00;;;;;14.82;100.00;99633.19;2106327;28;46768;-66
2024/01/02 00:11:10;;;;;;;;;0.00;0.00;;;;;14.84;100.00;99635.78;2107615;27;46294;-64
2024/01/02 00:12:10;;;;;;;;;0.00;0.00;;;;;14.85;100.00;99642.84;2107409;27;46226;-64
2024/01/02 00:13:10;;;;;;;;;0.00;0.00;;;;;14.88;100.00;99629.34;2106375;27;46717;-64
2024/01/02 00:14:11;;;;;;;;;0.00;0.00;;;;;14.87;100.00;99631.16;2107613;27;46338;-64
2024/01/02 00:15:11;;;;;;;;;0.00;0.00;;;;;14.84;100.00;99625.97;2106011;28;46373;-63
2024/01/02 00:16:12;;;;;;;;;1.00;0.00;;;;;14.85;100.00;99621.47;2098727;28;46480;-63
2024/01/02 00:17:12;;;;;;;;;0.00;0.00;;;;;14.87;100.00;99622.28;2098777;28;46290;-64
2024/01/02 00:18:12;;;;;;;;;0.00;0.00;;;;;14.88;100.00;99624.84;2095095;28;46164;-62
2024/01/02 00:19:14;;;;;;;;;0.00;0.00;;;;;14.89;100.00;99623.91;2098121;28;46421;-65
2024/01/02 00:20:14;;;;;;;;;0.00;0.00;;;;;14.90;100.00;99622.09;2107165;27;46369;-64
2024/01/02 00:21:14;;;;;;;;;0.00;0.00;;;;;14.90;100.00;99608.75;2106510;27;46434;-64
2024/01/02 00:22:15;;;;;;;;;0.00;0.00;;;;;14.90;100.00;99614.94;2107392;27;46534;-64
2024/01/02 00:23:16;;;;;;;;;0.00;0.00;;;;;14.91;100.00;99597.97;2106316;28;46613;-65
2024/01/02 00:24:16;;;;;;;;;0.00;0.00;;;;;14.89;100.00;99597.19;2107202;27;46447;-65
2024/01/02 00:25:17;;;;;;;;;0.00;0.00;;;;;14.93;100.00;99601.41;2108255;27;46566;-63
2024/01/02 00:26:17;;;;;;;;;0.00;0.00;;;;;14.96;100.00;99595.88;2106306;28;46290;-63
2024/01/02 00:27:17;;;;;;;;;2.00;0.00;;;;;14.95;100.00;99599.50;2108274;27;46642;-62
2024/01/02 00:28:18;;;;;;;;;0.00;0.00;;;;;14.96;100.00;99579.84;2097629;28;46239;-63
2024/01/02 00:29:18;;;;;;;;;0.00;0.00;;;;;14.96;100.00;99590.53;2098673;28;46114;-63
2024/01/02 00:30:18;;;;;;;;;0.00;0.00;;;;;14.97;100.00;99586.06;2106479;27;46319;-63
2024/01/02 00:31:19;;;;;;;;;0.00;0.00;;;;;14.97;100.00;99586.91;2115011;27;46287;-64
2024/01/02 00:32:19;;;;;;;;;0.00;0.00;;;;;14.97;100.00;99586.06;2108412;27;46819;-62
2024/01/02 00:33:20;;;;;;;;;0.00;0.00;;;;;14.99;100.00;99584.16;2106171;27;46679;-63
2024/01/02 00:34:20;;;;;;;;;0.00;0.00;;;;;14.98;100.00;99579.75;2106346;28;46658;-63
2024/01/02 00:35:20;;;;;;;;;0.00;0.00;;;;;15.23;100.00;99571.16;2107320;27;46608;-63
2024/01/02 00:36:21;;;;;;;;;0.00;0.00;;;;;15.35;100.00;99572.25;2106355;28;46376;-61
2024/01/02 00:37:21;;;;;;;;;0.00;0.00;;;;;15.39;100.00;99563.97;2113064;27;46195;-63
2024/01/02 00:38:24;;;;;;;;;0.00;0.00;;;;;15.43;100.00;99561.97;2110882;27;46806;-64
2024/01/02 00:39:25;;;;;;;;;0.00;0.00;;;;;15.47;100.00;99566.19;2105919;28;46825;-64
2024/01/02 00:40:26;;;;;;;;;0.00;0.00;;;;;15.47;100.00;99555.47;2106521;27;46720;-64
2024/01/02 00:41:26;;;;;;;;;0.00;0.00;;;;;15.48;100.00;99547.38;2106357;27;46333;-64
2024/01/02 00:42:26;;;;;;;;;0.00;0.00;;;;;15.43;100.00;99557.50;2106326;28;46540;-63
2024/01/02 00:43:27;;;;;;;;;0.00;0.00;;;;;15.50;100.00;99542.81;2098168;28;46609;-63
2024/01/02 00:44:27;;;;;;;;;0.00;0.00;;;;;15.46;100.00;99537.72;2097295;28;47221;-62
2024/01/02 00:45:28;;;;;;;;;0.67;0.00;;;;;15.24;100.00;99540.81;2106622;27;46722;-62
2024/01/02 00:46:29;;;;;;;;;0.00;0.00;;;;;15.21;100.00;99535.66;2106316;27;46413;-63
2024/01/02 00:47:30;;;;;;;;;0.00;0.00;;;;;15.20;100.00;99539.28;2105814;28;46403;-63
2024/01/02 00:48:30;;;;;;;;;0.00;0.00;;;;;15.18;100.00;99536.72;2106032;27;46916;-63
2024/01/02 00:49:30;;;;;;;;;0.00;0.00;;;;;15.18;100.00;99547.41;2107615;27;46906;-63
2024/01/02 00:50:31;;;;;;;;;0.00;0.00;;;;;15.17;100.00;99537.66;2107008;27;46452;-63
2024/01/02 00:51:31;;;;;;;;;0.67;0.00;;;;;15.18;100.00;99530.50;2106029;27;46275;-63
2024/01/02 00:52:33;;;;;;;;;0.00;0.00;;;;;15.18;100.00;99535.84;2106004;28;46281;-62
2024/01/02 00:53:33;;;;;;;;;0.00;0.00;;;;;15.17;100.00;99534.13;2105758;28;46829;-63
2024/01/02 00:54:33;;;;;;;;;0.00;0.00;;;;;15.16;100.00;99533.28;2079400;28;46336;-63
2024/01/02 00:55:34;;;;;;;;;0.00;0.00;;;;;15.17;100.00;99540.34;2079736;28;46618;-63
2024/01/02 00:56:34;;;;;;;;;0.00;0.00;;;;;15.17;100.00;99526.97;2105650;27;46558;-64
2024/01/02 00:57:34;;;;;;;;;0.00;0.00;;;;;15.18;100.00;99530.50;2106231;27;46868;-63
2024/01/02 00:58:35;;;;;;;;;0.00;0.00;;;;;15.16;100.00;99530.59;2106158;28;46679;-64
2024/01/02 00:59:35;;;;;;;;;0.67;0.00;;;;;15.15;100.00;99523.53;2106198;27;46589;-63
2024/01/02 01:00:35;;;;;;;;;0.00;0.00;;;;;15.16;100.00;99521.72;2106058;28;46630;-63
2024/01/02 01:01:36;;;;;;;;;0.67;0.00;;;;;15.17;100.00;99526.97;2106010;27;46238;-63
2024/01/02 01:02:36;;;;;;;;;0.00;0.00;;;;;15.18;100.00;99511.78;2106114;27;46420;-63
2024/01/02 01:03:37;;;;;;;;;0.00;0.00;;;;;15.18;100.00;99519.81;2105828;28;46171;-62
2024/01/02 01:04:42;;;;;;;;;0.00;0.00;;;;;15.19;100.00;99505.50;2106043;27;46678;-62
2024/01/02 01:05:43;;;;;;;;;0.00;0.00;;;;;15.19;100.00;99508.16;2107869;27;47326;-62
2024/01/02 01:06:43;;;;;;;;;0.00;0.00;;;;;15.19;100.00;99510.84;2114355;27;46372;-62
2024/01/02 01:07:44;;;;;;;;;0.00;0.00;;;;;15.19;100.00;99517.03;2105177;27;46296;-64
2024/01/02 01:08:44;;;;;;;;;0.00;0.00;;;;;15.19;100.00;99509.03;2106026;27;46259;-63
2024/01/02 01:09:44;;;;;;;;;0.00;0.00;;;;;15.20;100.00;99502.72;2107174;27;46301;-60
2024/01/02 01:10:45;;;;;;;;;0.00;0.00;;;;;15.20;100.00;99500.06;2108292;27;46193;-62
2024/01/02 01:11:45;;;;;;;;;0.00;0.00;;;;;15.21;100.00;99498.25;2106289;28;46490;-62
2024/01/02 01:12:45;;;;;;;;;0.00;0.00;;;;;15.22;100.00;99497.28;2108110;27;45889;-62
2024/01/02 01:13:46;;;;;;;;;0.00;0.00;;;;;15.20;100.00;99492.03;2107573;27;46732;-63
2024/01/02 01:14:46;;;;;;;;;0.00;0.00;;;;;15.20;100.00;99492.03;2106267;27;46487;-62
2024/01/02 01:15:46;;;;;;;;;0.00;0.00;;;;;15.20;100.00;99484.03;2108843;27;46651;-62
2024/01/02 01:16:47;;;;;;;;;0.00;0.00;;;;;15.19;100.00;99503.69;2106488;28;46145;-62
2024/01/02 01:17:47;;;;;;;;;0.00;0.00;;;;;15.20;100.00;99481.34;2108756;27;46583;-62
2024/01/02 01:18:48;;;;;;;;;0.00;0.00;;;;;15.31;100.00;99478.88;2108553;27;46684;-63
2024/01/02 01:19:49;;;;;;;;;0.00;0.00;;;;;15.26;100.00;99475.66;2105834;28;46911;-62
2024/01/02 01:20:49;;;;;;;;;0.00;0.00;;;;;15.27;100.00;99479.19;2108048;27;46811;-62
2024/01/02 01:21:49;;;;;;;;;0.00;0.00;;;;;15.34;100.00;99466.28;2106824;27;46662;-62
2024/01/02 01:22:50;;;;;;;;;1.00;0.00;;;;;15.27;100.00;99482.72;2107150;27;46516;-64
2024/01/02 01:23:50;;;;;;;;;0.33;0.00;;;;;15.29;100.00;99475.47;2107844;27;46465;-62
2024/01/02 01:24:50;;;;;;;;;0.00;0.00;;;;;15.26;100.00;99466.78;2104411;28;46961;-63
2024/01/02 01:25:51;;;;;;;;;0.00;0.00;;;;;15.27;100.00;99469.34;2105617;28;46260;-63
2024/01/02 01:26:52;;;;;;;;;0.00;0.00;;;;;15.28;100.00;99486.25;2107500;27;45791;-63
2024/01/02 01:27:53;;;;;;;;;0.00;0.00;;;;;15.27;100.00;99476.50;2113970;27;46371;-63
2024/01/02 01:28:53;;;;;;;;;0.00;0.00;;;;;15.26;100.00;99464.09;2109435;27;46403;-63
2024/01/02 01:29:53;;;;;;;;;0.00;0.00;;;;;15.39;100.00;99467.75;2102290;28;45985;-63
2024/01/02 01:30:53;;;;;;;;;0.00;0.00;;;;;15.29;100.00;99467.44;2111246;27;46352;-62
2024/01/02 01:31:54;;;;;;;;;0.00;0.00;;;;;15.27;100.00;99466.69;2113243;27;46952;-62
2024/01/02 01:32:54;;;;;;;;;0.00;0.00;;;;;15.28;100.00;99467.53;2105696;28;46452;-63
2024/01/02 01:33:55;;;;;;;;;0.00;0.00;;;;;15.26;100.00;99456.94;2108807;27;46286;-62
2024/01/02 01:34:55;;;;;;;;;0.00;0.00;;;;;15.32;100.00;99461.03;2107660;27;46148;-63
2024/01/02 01:35:55;;;;;;;;;0.00;0.00;;;;;15.33;100.00;99468.09;2106789;27;46745;-63
2024/01/02 01:36:56;;;;;;;;;0.00;0.00;;;;;15.34;100.00;99461.81;2109645;27;46250;-63
2024/01/02 01:37:56;;;;;;;;;0.00;0.00;;;;;15.33;100.00;99449.38;2113666;27;46616;-62
2024/01/02 01:38:56;;;;;;;;;0.00;0.00;;;;;15.37;100.00;99463.41;2106456;27;46243;-63
2024/01/02 01:39:57;;;;;;;;;0.00;0.00;;;;;15.28;100.00;99454.16;2106303;27;46513;-62
2024/01/02 01:40:57;;;;;;;;;0.00;0.00;;;;;15.30;100.00;99468.28;2105938;28;46290;-63
2024/01/02 01:41:57;;;;;;;;;0.00;0.00;;;;;15.23;100.00;99459.78;2105893;27;46340;-62
2024/01/02 01:42:58;;;;;;;;;0.00;0.00;;;;;15.22;100.00;99459.88;2097354;28;45514;-63
2024/01/02 01:43:59;;;;;;;;;0.00;0.00;;;;;15.21;100.00;99458.16;2096801;28;46358;-62
2024/01/02 01:44:59;;;;;;;;;0.00;0.00;;;;;15.20;100.00;99457.31;2106278;27;46917;-63
2024/01/02 01:46:00;;;;;;;;;0.00;0.00;;;;;15.20;100.00;99448.41;2105828;28;46955;-63
2024/01/02 01:47:02;;;;;;;;;0.00;0.00;;;;;15.19;100.00;99455.59;2106014;27;46960;-62
2024/01/02 01:48:06;;;;;;;;;0.00;0.00;;;;;15.19;100.00;99447.56;2104382;27;46747;-62
2024/01/02 01:49:09;;;;;;;;;0.00;0.00;;;;;15.19;100.00;99458.25;2105866;28;46386;-62
2024/01/02 01:50:10;;;;;;;;;0.00;0.00;;;;;15.19;100.00;99458.25;2105914;27;46750;-62
2024/01/02 01:51:10;;;;;;;;;0.00;0.00;;;;;15.19;100.00;99468.94;2105569;27;46926;-63
2024/01/02 01:52:13;;;;;;;;;1.00;0.00;;;;;15.19;100.00;99455.59;2105741;28;46664;-62
2024/01/02 01:53:14;;;;;;;;;0.00;0.00;;;;;15.18;100.00;99453.88;2106390;27;46116;-63
2024/01/02 01:54:16;;;;;;;;;0.00;0.00;;;;;15.18;100.00;99461.88;2079678;28;46588;-63
2024/01/02 01:55:16;;;;;;;;;0.00;0.00;;;;;15.19;100.00;99457.41;2080442;28;46869;-61
2024/01/02 01:56:17;;;;;;;;;0.00;0.00;;;;;15.17;100.00;99464.66;2106491;27;46353;-62
2024/01/02 01:57:17;;;;;;;;;0.00;0.00;;;;;15.18;100.00;99445.84;2105732;28;46944;-61
2024/01/02 01:58:18;;;;;;;;;0.00;0.00;;;;;15.16;100.00;99453.09;2105924;27;46635;-63
2024/01/02 01:59:19;;;;;;;;;0.00;0.00;;;;;15.18;100.00;99453.00;2105913;27;46476;-62
2024/01/02 02:00:20;;;;;;;;;0.00;0.00;;;;;15.15;100.00;99450.53;2105406;28;46342;-62
2024/01/02 02:01:21;;;;;;;;;0.00;0.00;;;;;15.14;100.00;99455.00;2105965;27;46306;-63
2024/01/02 02:02:22;;;;;;;;;0.00;0.00;;;;;15.14;100.00;99459.50;2105947;27;46397;-62
2024/01/02 02:03:26;;;;;;;;;0.00;0.00;;;;;15.15;100.00;99450.53;2111503;27;46080;-62
2024/01/02 02:04:28;;;;;;;;;0.00;0.00;;;;;15.16;100.00;99446.91;2106086;27;46789;-61
2024/01/02 02:05:29;;;;;;;;;0.00;0.00;;;;;15.15;100.00;99437.16;2105851;28;47056;-63
2024/01/02 02:06:30;;;;;;;;;0.00;0.00;;;;;15.36;100.00;99449.19;2105309;28;46434;-63
2024/01/02 02:07:30;;;;;;;;;0.00;0.00;;;;;15.44;100.00;99443.38;2106963;27;46785;-63
2024/01/02 02:08:31;;;;;;;;;0.00;0.00;;;;;15.28;100.00;99438.13;2105609;28;46561;-63
2024/01/02 02:09:31;;;;;;;;;0.33;0.00;;;;;15.21;100.00;99456.34;2106858;27;46687;-63
2024/01/02 02:10:31;;;;;;;;;0.00;0.00;;;;;15.18;100.00;99453.00;2106529;27;46402;-62
2024/01/02 02:11:33;;;;;;;;;0.00;0.00;;;;;15.23;100.00;99466.94;2105732;27;45977;-62
2024/01/02 02:12:35;;;;;;;;;0.00;0.00;;;;;15.16;100.00;99453.09;2106757;27;46784;-63
2024/01/02 02:13:35;;;;;;;;;0.00;0.00;;;;;15.15;100.00;99450.53;2105554;28;46743;-61
2024/01/02 02:14:35;;;;;;;;;0.00;0.00;;;;;15.17;100.00;99456.63;2107311;27;46592;-63
2024/01/02 02:15:40;;;;;;;;;0.00;0.00;;;;;15.17;100.00;99446.81;2107115;27;47060;-61
2024/01/02 02:16:42;;;;;;;;;0.00;0.00;;;;;15.19;100.00;99434.19;2105784;28;46182;-61
2024/01/02 02:17:42;;;;;;;;;0.00;0.00;;;;;15.19;100.00;99446.69;2107732;27;46418;-61
2024/01/02 02:18:43;;;;;;;;;0.00;0.00;;;;;15.19;100.00;99457.41;2104194;27;46821;-61
2024/01/02 02:19:43;;;;;;;;;0.00;0.00;;;;;15.19;100.00;99452.06;2112600;27;46612;-60
2024/01/02 02:20:43;;;;;;;;;0.00;0.00;;;;;15.16;100.00;99453.09;2111357;27;46487;-61
2024/01/02 02:21:46;;;;;;;;;0.00;0.00;;;;;15.17;100.00;99443.28;2105700;27;46708;-63
2024/01/02 02:22:50;;;;;;;;;0.00;0.00;;;;;15.16;100.00;99453.09;2090800;28;46786;-62
2024/01/02 02:23:51;;;;;;;;;0.00;0.00;;;;;15.15;100.00;99451.38;2092289;28;46900;-61
2024/01/02 02:24:51;;;;;;;;;0.00;0.00;;;;;15.24;100.00;99452.63;2105336;28;46607;-62
2024/01/02 02:25:51;;;;;;;;;0.00;0.00;;;;;15.34;100.00;99439.56;2109266;27;45765;-62
2024/01/02 02:26:56;;;;;;;;;0.00;0.00;;;;;15.31;100.00;99446.81;2108101;27;45739;-62
2024/01/02 02:27:56;;;;;;;;;0.00;0.00;;;;;15.28;100.00;99427.44;2105838;27;46908;-61
2024/01/02 02:28:56;;;;;;;;;0.00;0.00;;;;;15.19;100.00;99439.53;2105207;27;46674;-62
2024/01/02 02:29:57;;;;;;;;;0.00;0.00;;;;;15.17;100.00;99427.25;2106582;27;46648;-62
2024/01/02 02:30:57;;;;;;;;;0.00;0.00;;;;;15.16;100.00;99470.94;2107524;27;46501;-62
2024/01/02 02:31:57;;;;;;;;;1.00;0.00;;;;;15.15;100.00;99434.50;2108914;27;46259;-62
2024/01/02 02:32:58;;;;;;;;;0.00;0.00;;;;;15.15;100.00;99442.50;2105292;28;46745;-62
2024/01/02 02:33:58;;;;;;;;;0.00;0.00;;;;;15.15;100.00;99443.38;2098304;28;46357;-62
2024/01/02 02:34:58;;;;;;;;;0.00;0.00;;;;;15.14;100.00;99449.66;2099363;28;46370;-61
2024/01/02 02:36:01;;;;;;;;;0.00;0.00;;;;;15.15;100.00;99445.19;2106101;27;46272;-62
2024/01/02 02:37:02;;;;;;;;;0.25;0.00;;;;;15.15;100.00;99429.16;2109075;27;46364;-62
2024/01/02 02:38:02;;;;;;;;;0.00;0.00;;;;;15.16;100.00;99442.41;2106283;27;46480;-61
2024/01/02 02:39:03;;;;;;;;;0.67;0.00;;;;;15.17;100.00;99435.25;2105484;28;46840;-61
2024/01/02 02:40:04;;;;;;;;;0.00;0.00;;;;;15.19;100.00;99452.06;2103625;27;46528;-62
2024/01/02 02:41:05;;;;;;;;;0.00;0.00;;;;;15.18;100.00;99442.31;2104426;28;46704;-61
2024/01/02 02:42:05;;;;;;;;;0.00;0.00;;;;;15.19;100.00;99444.03;2106901;27;46192;-61
2024/01/02 02:43:05;;;;;;;;;0.00;0.00;;;;;15.19;100.00;99452.91;2106695;27;47058;-62
2024/01/02 02:44:06;;;;;;;;;0.00;0.00;;;;;15.18;100.00;99436.97;2105416;28;46932;-62
2024/01/02 02:45:07;;;;;;;;;0.00;0.00;;;;;15.19;100.00;99436.88;2106517;27;46859;-63
2024/01/02 02:46:07;;;;;;;;;0.00;0.00;;;;;15.19;100.00;99433.34;2105179;27;46652;-63
2024/01/02 02:47:08;;;;;;;;;0.00;0.00;;;;;15.19;100.00;99430.66;2114035;27;46618;-64
2024/01/02 02:48:09;;;;;;;;;0.00;0.00;;;;;15.19;100.00;99439.53;2110126;27;46926;-62
2024/01/02 02:49:09;;;;;;;;;0.00;0.00;;;;;15.19;100.00;99444.88;2103927;28;46744;-62
2024/01/02 02:50:09;;;;;;;;;1.00;0.00;;;;;15.20;100.00;99425.22;2106535;27;46569;-63
2024/01/02 02:51:10;;;;;;;;;0.00;0.00;;;;;15.21;100.00;99453.66;2107572;27;46600;-64
2024/01/02 02:52:10;;;;;;;;;0.00;0.00;;;;;15.21;100.00;99451.00;2105448;28;46182;-64
2024/01/02 02:53:11;;;;;;;;;0.00;0.00;;;;;15.19;100.00;99439.53;2107142;27;46388;-64
2024/01/02 02:54:11;;;;;;;;;0.00;0.00;;;;;15.21;100.00;99434.97;2106211;27;46520;-65
2024/01/02 02:55:12;;;;;;;;;0.00;0.00;;;;;15.22;100.00;99443.84;2105868;27;46219;-63
2024/01/02 02:56:16;;;;;;;;;0.00;0.00;;;;;15.23;100.00;99437.53;2108696;27;46327;-62
2024/01/02 02:57:16;;;;;;;;;0.00;0.00;;;;;15.21;100.00;99432.28;2113753;27;46880;-62
2024/01/02 02:58:17;;;;;;;;;0.00;0.00;;;;;15.22;100.00;99431.34;2108195;27;46370;-63
2024/01/02 02:59:18;;;;;;;;;0.00;0.00;;;;;15.22;100.00;99439.34;2081555;28;46547;-61
2024/01/02 03:00:18;;;;;;;;;1.00;0.00;;;;;15.23;100.00;99434.88;2079178;28;46763;-63
2024/01/02 03:01:22;;;;;;;;;0.00;0.00;;;;;15.25;100.00;99435.66;2107892;27;46560;-63
2024/01/02 03:02:23;;;;;;;;;0.00;0.00;;;;;15.27;100.00;99428.41;2107042;27;47145;-62
2024/01/02 03:03:23;;;;;;;;;1.00;0.00;;;;;15.42;100.00;99424.78;2105556;27;46593;-63
2024/01/02 03:04:23;;;;;;;;;0.00;0.00;;;;;15.45;100.00;99439.75;2078644;28;45896;-63
2024/01/02 03:05:24;;;;;;;;;0.00;0.00;;;;;15.51;100.00;99418.00;2078978;28;46746;-62
2024/01/02 03:06:24;;;;;;;;;0.00;0.00;;;;;15.49;100.00;99430.59;2105562;27;46007;-63
2024/01/02 03:07:25;;;;;;;;;0.00;0.00;;;;;15.48;100.00;99431.53;2107172;27;46335;-63
2024/01/02 03:08:25;;;;;;;;;0.00;0.00;;;;;15.44;100.00;99438.91;2105293;28;45853;-63
2024/01/02 03:09:25;;;;;;;;;0.00;0.00;;;;;15.47;100.00;99427.16;2108034;27;45237;-63
2024/01/02 03:10:26;;;;;;;;;0.00;0.00;;;;;15.46;100.00;99428.97;2105878;27;45621;-63
2024/01/02 03:11:26;;;;;;;;;0.00;0.00;;;;;15.51;100.00;99429.56;2107507;27;46541;-64
2024/01/02 03:12:26;;;;;;;;;0.00;0.00;;;;;15.50;100.00;99426.94;2108480;27;46429;-63
2024/01/02 03:13:28;;;;;;;;;0.00;0.00;;;;;15.49;100.00;99433.25;2105300;28;46794;-64
2024/01/02 03:14:28;;;;;;;;;0.00;0.00;;;;;15.50;100.00;99429.63;2107734;27;46433;-63
2024/01/02 03:15:29;;;;;;;;;0.00;0.00;;;;;15.55;100.00;99431.06;2107633;27;46290;-63
2024/01/02 03:16:30;;;;;;;;;0.00;0.00;;;;;15.55;100.00;99423.06;2106174;27;46512;-62
2024/01/02 03:17:30;;;;;;;;;0.00;0.00;;;;;15.58;100.00;99433.56;2107651;27;46872;-63
2024/01/02 03:18:31;;;;;;;;;1.00;0.00;;;;;15.56;100.00;99423.91;2105612;27;46430;-63
2024/01/02 03:19:31;;;;;;;;;0.00;0.00;;;;;15.59;100.00;99429.94;2107280;27;46650;-62
2024/01/02 03:20:31;;;;;;;;;0.00;0.00;;;;;15.56;100.00;99430.13;2107976;27;46226;-63
2024/01/02 03:21:32;;;;;;;;;0.00;0.00;;;;;15.63;100.00;99416.41;2105201;28;47084;-62
2024/01/02 03:22:32;;;;;;;;;0.00;0.00;;;;;15.62;100.00;99415.53;2107590;27;46459;-63
2024/01/02 03:23:33;;;;;;;;;0.00;0.00;;;;;15.46;100.00;99423.63;2107251;27;46167;-63
2024/01/02 03:24:33;;;;;;;;;0.00;0.00;;;;;15.41;100.00;99412.38;2104470;27;46772;-63
2024/01/02 03:25:34;;;;;;;;;0.00;0.00;;;;;15.39;100.00;99419.63;2108801;27;46361;-62
2024/01/02 03:26:34;;;;;;;;;0.00;0.00;;;;;15.42;100.00;99435.47;2106324;27;45378;-63
2024/01/02 03:27:34;;;;;;;;;0.00;0.00;;;;;15.44;100.00;99413.97;2108547;27;46693;-62
2024/01/02 03:28:35;;;;;;;;;0.00;0.00;;;;;15.52;100.00;99419.72;2108465;27;46235;-62
2024/01/02 03:29:35;;;;;;;;;0.00;0.00;;;;;15.53;100.00;99418.75;2105419;27;46622;-62
2024/01/02 03:30:40;;;;;;;;;0.00;0.00;;;;;15.53;100.00;99414.28;2108685;27;46481;-62
2024/01/02 03:31:40;;;;;;;;;0.00;0.00;;;;;15.53;100.00;99414.28;2107239;27;46870;-64
2024/01/02 03:32:41;;;;;;;;;0.00;0.00;;;;;15.65;100.00;99415.34;2106971;27;46139;-63
2024/01/02 03:33:41;;;;;;;;;1.00;0.00;;;;;15.58;100.00;99427.34;2108479;27;46828;-62
2024/01/02 03:34:41;;;;;;;;;0.00;0.00;;;;;15.56;100.00;99424.78;2105295;27;46582;-63
2024/01/02 03:35:42;;;;;;;;;0.00;0.00;;;;;15.54;100.00;99416.00;2108551;27;46677;-63
2024/01/02 03:36:42;;;;;;;;;0.00;0.00;;;;;15.57;100.00;99413.13;2108535;27;46174;-63
2024/01/02 03:37:43;;;;;;;;;0.00;0.00;;;;;15.60;100.00;99426.31;2095282;28;46192;-64
2024/01/02 03:38:44;;;;;;;;;0.00;0.00;;;;;15.62;100.00;99403.97;2096736;28;46297;-63
2024/01/02 03:39:45;;;;;;;;;0.00;0.00;;;;;15.57;100.00;99417.59;2105252;27;46384;-62
2024/01/02 03:40:45;;;;;;;;;0.00;0.00;;;;;15.60;100.00;99425.47;2104674;28;46365;-63
2024/01/02 03:41:45;;;;;;;;;0.00;0.00;;;;;15.59;100.00;99416.56;2087795;28;46374;-63
2024/01/02 03:42:46;;;;;;;;;0.00;0.00;;;;;15.59;100.00;99419.25;2087091;28;46595;-63
2024/01/02 03:43:46;;;;;;;;;0.00;0.00;;;;;15.60;100.00;99414.75;2105529;27;46754;-64
2024/01/02 03:44:46;;;;;;;;;0.00;0.00;;;;;15.57;100.00;99413.13;2105718;27;46338;-63
2024/01/02 03:45:47;;;;;;;;;0.00;0.00;;;;;15.57;100.00;99414.94;2105091;28;46831;-60
2024/01/02 03:46:47;;;;;;;;;0.00;0.00;;;;;15.58;100.00;99422.84;2105771;27;46313;-63
2024/01/02 03:47:47;;;;;;;;;0.00;0.00;;;;;15.58;100.00;99417.50;2105133;27;46271;-62
2024/01/02 03:48:48;;;;;;;;;0.00;0.00;;;;;15.59;100.00;99400.53;2113230;27;46233;-61
2024/01/02 03:49:48;;;;;;;;;0.00;0.00;;;;;15.60;100.00;99407.59;2109262;27;46282;-62
2024/01/02 03:50:49;;;;;;;;;0.00;0.00;;;;;15.62;100.00;99412.84;2104930;28;46472;-63
2024/01/02 03:51:49;;;;;;;;;0.00;0.00;;;;;15.62;100.00;99420.00;2105588;27;46810;-63
2024/01/02 03:52:50;;;;;;;;;0.00;0.00;;;;;15.60;100.00;99420.97;2105167;27;46587;-63
2024/01/02 03:53:51;;;;;;;;;0.00;0.00;;;;;15.57;100.00;99417.59;2105059;28;46644;-62
2024/01/02 03:54:51;;;;;;;;;0.00;0.00;;;;;15.60;100.00;99410.28;2105435;27;46501;-63
2024/01/02 03:55:51;;;;;;;;;0.00;0.00;;;;;15.61;100.00;99419.16;2105052;27;46320;-63
2024/01/02 03:56:52;;;;;;;;;0.00;0.00;;;;;15.52;100.00;99422.41;2104024;28;46249;-62
2024/01/02 03:57:52;;;;;;;;;0.00;0.00;;;;;15.42;100.00;99408.72;2106123;27;46514;-63
2024/01/02 03:58:52;;;;;;;;;0.00;0.00;;;;;15.42;100.00;99418.56;2104670;28;46759;-63
2024/01/02 03:59:53;;;;;;;;;0.33;0.00;;;;;15.41;100.00;99407.00;2078623;28;46590;-62
2024/01/02 04:00:54;;;;;;;;;0.00;0.00;;;;;15.42;100.00;99406.06;2079631;28;46653;-63
2024/01/02 04:01:55;;;;;;;;;0.50;0.00;;;;;15.42;100.00;99410.53;2104962;28;45709;-64
2024/01/02 04:02:55;;;;;;;;;0.00;0.00;;;;;15.42;100.00;99407.88;2105710;27;46506;-62
2024/01/02 04:03:55;;;;;;;;;0.00;0.00;;;;;15.41;100.00;99417.72;2105332;27;46009;-63
2024/01/02 04:04:56;;;;;;;;;0.00;0.00;;;;;15.42;100.00;99394.50;2105413;27;46536;-65
2024/01/02 04:05:56;;;;;;;;;0.00;0.00;;;;;15.41;100.00;99393.66;2105564;27;46339;-64
2024/01/02 04:06:56;;;;;;;;;0.00;0.00;;;;;15.42;100.00;99398.03;2104783;28;46198;-63
2024/01/02 04:07:56;;;;;;;;;0.00;0.00;;;;;15.43;100.00;99402.44;2105816;27;46367;-64
2024/01/02 04:08:57;;;;;;;;;0.00;0.00;;;;;15.43;100.00;99406.91;2105508;27;46836;-64
2024/01/02 04:09:57;;;;;;;;;0.00;0.00;;;;;15.43;100.00;99393.56;2104888;28;46973;-64
2024/01/02 04:10:57;;;;;;;;;0.00;0.00;;;;;15.44;100.00;99389.91;2105424;27;47102;-62
2024/01/02 04:11:58;;;;;;;;;0.00;0.00;;;;;15.44;100.00;99395.25;2103335;28;46566;-63
2024/01/02 04:12:58;;;;;;;;;0.00;0.00;;;;;15.45;100.00;99399.66;2111761;27;46292;-63
2024/01/02 04:13:58;;;;;;;;;0.00;0.00;;;;;15.45;100.00;99395.16;2112271;27;45823;-63
2024/01/02 04:14:59;;;;;;;;;0.00;0.00;;;;;15.48;100.00;99380.75;2106186;28;46625;-63
2024/01/02 04:15:59;;;;;;;;;0.00;0.00;;;;;15.47;100.00;99387.03;2107790;27;46860;-64
2024/01/02 04:17:00;;;;;;;;;0.00;0.00;;;;;15.46;100.00;99391.53;2107942;27;45967;-63
2024/01/02 04:18:00;;;;;;;;;0.00;0.00;;;;;15.48;100.00;99399.47;2106767;27;46580;-63
2024/01/02 04:19:02;;;;;;;;;0.00;0.00;;;;;15.48;100.00;99394.97;2108843;27;45903;-64
2024/01/02 04:20:03;;;;;;;;;0.00;0.00;;;;;15.47;100.00;99395.06;2106889;28;45937;-63
2024/01/02 04:21:03;;;;;;;;;0.00;0.00;;;;;15.48;100.00;99404.81;2108596;27;46640;-64
2024/01/02 04:22:04;;;;;;;;;1.00;0.00;;;;;15.46;100.00;99412.91;2108848;27;46432;-64
2024/01/02 04:23:05;;;;;;;;;0.00;0.00;;;;;15.45;100.00;99400.50;2106488;28;46731;-62
2024/01/02 04:24:05;;;;;;;;;0.33;0.00;;;;;15.44;100.00;99406.81;2108828;27;46400;-64
2024/01/02 04:25:07;;;;;;;;;0.00;0.00;;;;;15.42;100.00;99400.72;2107215;27;45579;-63
2024/01/02 04:26:07;;;;;;;;;0.00;0.00;;;;;15.42;100.00;99394.50;2107451;27;46556;-64
2024/01/02 04:27:07;;;;;;;;;0.00;0.00;;;;;15.40;100.00;99383.91;2079773;28;46418;-63
2024/01/02 04:28:08;;;;;;;;;0.00;0.00;;;;;15.39;100.00;99389.38;2078766;28;46435;-63
2024/01/02 04:29:08;;;;;;;;;0.00;0.00;;;;;15.37;100.00;99394.78;2107992;27;46130;-62
2024/01/02 04:30:09;;;;;;;;;0.00;0.00;;;;;15.36;100.00;99397.53;2108401;27;46411;-62
2024/01/02 04:31:09;;;;;;;;;1.00;0.00;;;;;15.37;100.00;99399.25;2088252;28;46534;-62
2024/01/02 04:32:10;;;;;;;;;0.00;0.00;;;;;15.45;100.00;99392.50;2088322;28;46666;-63
2024/01/02 04:33:10;;;;;;;;;0.00;0.00;;;;;15.49;100.00;99404.69;2106954;27;46511;-62
2024/01/02 04:34:11;;;;;;;;;0.00;0.00;;;;;15.47;100.00;99385.22;2107147;27;46693;-63
2024/01/02 04:35:11;;;;;;;;;0.00;0.00;;;;;15.50;100.00;99405.56;2107935;27;46566;-63
2024/01/02 04:36:11;;;;;;;;;0.00;0.00;;;;;15.49;100.00;99396.69;2106168;28;45631;-63
2024/01/02 04:37:12;;;;;;;;;0.00;0.00;;;;;15.50;100.00;99394.88;2107836;27;46709;-63
2024/01/02 04:38:12;;;;;;;;;0.00;0.00;;;;;15.48;100.00;99402.13;2106463;27;46852;-63
2024/01/02 04:39:13;;;;;;;;;0.00;0.00;;;;;15.49;100.00;99403.84;2097519;28;46063;-64
2024/01/02 04:40:13;;;;;;;;;0.00;0.00;;;;;15.48;100.00;99386.09;2096716;28;46486;-63
2024/01/02 04:41:14;;;;;;;;;0.00;0.00;;;;;15.46;100.00;99391.53;2106517;27;46334;-64